Time;durP1;ratioP1;P1;durP2;ratioP2;P2;SDS_P1;SDS_P2;PMS_P1;PMS_P2;Temp;Humidity;BMP_temperature;BMP_pressure;BME280_temperature;BME280_humidity;BME280_pressure;Samples;Min_cycle;Max_cycle;Signal;HPM_P1;HPM_P2
2023/05/06 02:07:35;;;;;;;5.75;2.42;;;;;;;;;;5055605;27;20377;-67
2023/05/06 02:10:01;;;;;;;7.10;3.17;;;;;;;;;;5033549;28;20132;-69
2023/05/06 02:12:28;;;;;;;6.55;3.17;;;;;;;;;;5037524;28;20053;-66
2023/05/06 02:14:55;;;;;;;7.35;2.85;;;;;;;;;;5034418;28;20121;-67
2023/05/06 02:17:21;;;;;;;8.27;3.50;;;;;;;;;;5026878;28;20259;-69
2023/05/06 02:19:48;;;;;;;7.20;3.33;;;;;;;;;;5031291;28;20085;-67
2023/05/06 02:22:14;;;;;;;7.07;3.33;;;;;;;;;;5036460;28;20053;-69
2023/05/06 02:24:42;;;;;;;7.25;3.35;;;;;;;;;;5036234;28;20042;-68
2023/05/06 02:27:08;;;;;;;7.33;3.13;;;;;;;;;;5016906;28;20251;-70
2023/05/06 02:29:35;;;;;;;7.45;3.38;;;;;;;;;;5036168;28;20045;-69
2023/05/06 02:32:01;;;;;;;7.63;3.40;;;;;;;;;;5040362;28;20139;-70
2023/05/06 02:34:27;;;;;;;6.78;3.10;;;;;;;;;;5037137;28;20103;-68
2023/05/06 02:36:54;;;;;;;8.55;3.60;;;;;;;;;;5017026;28;20107;-67
2023/05/06 02:39:20;;;;;;;7.63;3.38;;;;;;;;;;5010026;28;20065;-65
2023/05/06 02:41:48;;;;;;;6.25;3.20;;;;;;;;;;5010448;28;20054;-69
2023/05/06 02:44:14;;;;;;;8.37;3.20;;;;;;;;;;5004514;28;20148;-67
2023/05/06 02:46:42;;;;;;;9.85;3.38;;;;;;;;;;5038164;28;20398;-69
2023/05/06 02:49:08;;;;;;;8.93;3.58;;;;;;;;;;5031651;28;20136;-68
2023/05/06 02:51:35;;;;;;;7.95;3.80;;;;;;;;;;5029076;28;20140;-67
2023/05/06 02:54:01;;;;;;;7.45;3.53;;;;;;;;;;5035371;28;20049;-66
2023/05/06 02:56:28;;;;;;;7.85;3.30;;;;;;;;;;5030485;28;20056;-67
2023/05/06 02:58:56;;;;;;;7.18;3.60;;;;;;;;;;5036023;28;20045;-69
2023/05/06 03:01:22;;;;;;;8.00;3.47;;;;;;;;;;5026462;28;20057;-67
2023/05/06 03:03:49;;;;;;;6.85;3.47;;;;;;;;;;5036251;28;20057;-69
2023/05/06 03:06:16;;;;;;;7.95;3.75;;;;;;;;;;5053080;28;20044;-69
2023/05/06 03:08:42;;;;;;;7.80;3.35;;;;;;;;;;5071476;28;20067;-69
2023/05/06 03:11:09;;;;;;;7.57;3.40;;;;;;;;;;5069911;28;20060;-68
2023/05/06 03:13:35;;;;;;;7.47;3.30;;;;;;;;;;5073134;28;20110;-69
2023/05/06 03:16:03;;;;;;;7.63;3.53;;;;;;;;;;5073879;28;20063;-68
2023/05/06 03:18:29;;;;;;;6.50;3.40;;;;;;;;;;5063860;28;20053;-67
2023/05/06 03:20:56;;;;;;;7.40;3.75;;;;;;;;;;5063222;28;20064;-68
2023/05/06 03:23:22;;;;;;;9.05;3.60;;;;;;;;;;5051370;28;20124;-67
2023/05/06 03:25:48;;;;;;;8.25;4.10;;;;;;;;;;5058011;28;20045;-69
2023/05/06 03:28:15;;;;;;;6.90;3.42;;;;;;;;;;5061475;28;20110;-68
2023/05/06 03:30:41;;;;;;;8.05;3.55;;;;;;;;;;5063904;28;20099;-70
2023/05/06 03:33:09;;;;;;;6.03;3.03;;;;;;;;;;5054414;28;20070;-69
2023/05/06 03:35:36;;;;;;;9.05;4.05;;;;;;;;;;5050291;28;20056;-69
2023/05/06 03:38:02;;;;;;;8.15;3.80;;;;;;;;;;5057811;28;20064;-69
2023/05/06 03:40:28;;;;;;;8.15;3.83;;;;;;;;;;5061905;28;20094;-67
2023/05/06 03:42:55;;;;;;;6.03;3.20;;;;;;;;;;5058814;28;20116;-69
2023/05/06 03:45:21;;;;;;;7.85;3.65;;;;;;;;;;5049455;28;20080;-67
2023/05/06 03:47:48;;;;;;;7.90;3.78;;;;;;;;;;5060990;28;20052;-69
2023/05/06 03:50:16;;;;;;;8.48;3.72;;;;;;;;;;5056125;28;20141;-68
2023/05/06 03:52:42;;;;;;;12.50;4.15;;;;;;;;;;5078122;28;20115;-69
2023/05/06 03:55:09;;;;;;;7.40;3.42;;;;;;;;;;5053585;28;20061;-67
2023/05/06 03:57:36;;;;;;;7.03;3.85;;;;;;;;;;5057271;28;20055;-69
2023/05/06 04:00:02;;;;;;;8.27;3.92;;;;;;;;;;5063275;28;20044;-67
2023/05/06 04:02:29;;;;;;;7.70;3.60;;;;;;;;;;5060465;28;20470;-70
2023/05/06 04:04:55;;;;;;;13.82;4.18;;;;;;;;;;5057618;28;20062;-67
2023/05/06 04:07:23;;;;;;;8.00;3.90;;;;;;;;;;5032306;28;20052;-67
2023/05/06 04:09:50;;;;;;;7.17;3.63;;;;;;;;;;5059333;28;20056;-67
2023/05/06 04:12:16;;;;;;;7.95;3.90;;;;;;;;;;5060844;28;20383;-66
2023/05/06 04:14:42;;;;;;;7.07;3.47;;;;;;;;;;5057751;28;20067;-70
2023/05/06 04:17:09;;;;;;;7.28;3.88;;;;;;;;;;5034115;28;20048;-67
2023/05/06 04:19:36;;;;;;;8.85;3.90;;;;;;;;;;5065705;28;20123;-66
2023/05/06 04:22:03;;;;;;;8.02;3.67;;;;;;;;;;5063219;28;20092;-67
2023/05/06 04:24:33;;;;;;;8.80;4.05;;;;;;;;;;5056981;28;20057;-69
2023/05/06 04:27:01;;;;;;;8.23;3.92;;;;;;;;;;5057406;28;20059;-70
2023/05/06 04:29:27;;;;;;;7.73;3.70;;;;;;;;;;5054718;28;20060;-67
2023/05/06 04:31:54;;;;;;;9.63;4.32;;;;;;;;;;5058365;28;20076;-68
2023/05/06 04:34:20;;;;;;;8.43;4.03;;;;;;;;;;5063051;28;20147;-71
2023/05/06 04:36:49;;;;;;;;;;;;;;;;;;5022893;28;20076;-68
2023/05/06 04:39:16;;;;;;;7.57;3.95;;;;;;;;;;5051067;28;19947;-70
2023/05/06 04:41:45;;;;;;;9.27;3.92;;;;;;;;;;5059824;28;20144;-68
2023/05/06 04:44:11;;;;;;;9.23;4.07;;;;;;;;;;5059302;28;20060;-68
2023/05/06 04:46:38;;;;;;;7.47;3.67;;;;;;;;;;5042915;28;20065;-70
2023/05/06 04:49:05;;;;;;;11.70;3.63;;;;;;;;;;5055043;28;20119;-71
2023/05/06 04:51:31;;;;;;;7.68;3.88;;;;;;;;;;5054554;28;22189;-71
2023/05/06 04:53:58;;;;;;;8.00;4.00;;;;;;;;;;5063004;28;20090;-70
2023/05/06 04:56:24;;;;;;;10.05;4.18;;;;;;;;;;5025725;28;20061;-68
2023/05/06 04:58:52;;;;;;;8.18;3.90;;;;;;;;;;5060540;28;20100;-71
2023/05/06 05:01:19;;;;;;;8.68;4.15;;;;;;;;;;5051752;28;20048;-70
2023/05/06 05:03:46;;;;;;;8.02;3.63;;;;;;;;;;5062225;28;20187;-67
2023/05/06 05:06:12;;;;;;;7.75;3.67;;;;;;;;;;5058222;28;20088;-68
2023/05/06 05:08:39;;;;;;;8.30;3.88;;;;;;;;;;5069281;28;20045;-67
2023/05/06 05:11:05;;;;;;;7.95;3.90;;;;;;;;;;4963058;28;20087;-67
2023/05/06 05:13:32;;;;;;;8.48;4.05;;;;;;;;;;5064184;28;20135;-68
2023/05/06 05:16:00;;;;;;;8.32;4.25;;;;;;;;;;5026408;28;20129;-68
2023/05/06 05:18:27;;;;;;;8.67;4.13;;;;;;;;;;5057660;28;20048;-69
2023/05/06 05:20:54;;;;;;;8.00;3.90;;;;;;;;;;5061667;28;20060;-70
2023/05/06 05:23:20;;;;;;;8.15;4.00;;;;;;;;;;5051982;28;20056;-70
2023/05/06 05:25:47;;;;;;;7.47;3.92;;;;;;;;;;5058175;28;20064;-68
2023/05/06 05:28:13;;;;;;;10.15;3.80;;;;;;;;;;5056922;28;20109;-70
2023/05/06 05:30:43;;;;;;;9.43;4.50;;;;;;;;;;5059578;28;20076;-69
2023/05/06 05:33:10;;;;;;;7.55;4.00;;;;;;;;;;5053462;28;20048;-70
2023/05/06 05:35:37;;;;;;;7.93;3.83;;;;;;;;;;5057517;28;20060;-70
2023/05/06 05:38:04;;;;;;;8.95;4.50;;;;;;;;;;5057557;28;20322;-68
2023/05/06 05:40:30;;;;;;;9.55;4.28;;;;;;;;;;5060686;28;20067;-67
2023/05/06 05:42:57;;;;;;;8.85;4.50;;;;;;;;;;5056361;28;20072;-68
2023/05/06 05:45:23;;;;;;;9.95;4.15;;;;;;;;;;5053090;28;20970;-69
2023/05/06 05:47:50;;;;;;;7.82;4.30;;;;;;;;;;5057735;28;20060;-70
2023/05/06 05:50:17;;;;;;;9.93;4.15;;;;;;;;;;5060282;28;20052;-68
2023/05/06 05:52:44;;;;;;;9.00;4.50;;;;;;;;;;5063551;28;20110;-70
2023/05/06 05:55:12;;;;;;;9.73;4.40;;;;;;;;;;5039217;28;20072;-68
2023/05/06 05:57:39;;;;;;;9.50;4.05;;;;;;;;;;5060740;28;20056;-69
2023/05/06 06:00:07;;;;;;;11.25;5.10;;;;;;;;;;5055367;28;20238;-71
2023/05/06 06:02:34;;;;;;;9.80;4.55;;;;;;;;;;5059409;28;20075;-69
2023/05/06 06:05:01;;;;;;;9.05;4.82;;;;;;;;;;5052040;28;20114;-70
2023/05/06 06:07:28;;;;;;;10.40;5.15;;;;;;;;;;5051918;28;20083;-70
2023/05/06 06:09:55;;;;;;;9.03;4.77;;;;;;;;;;5054527;28;20088;-67
2023/05/06 06:12:25;;;;;;;12.27;5.38;;;;;;;;;;5060607;28;20075;-67
2023/05/06 06:14:53;;;;;;;9.07;4.82;;;;;;;;;;5043166;28;20153;-70
2023/05/06 06:17:19;;;;;;;9.77;5.18;;;;;;;;;;5053799;28;20048;-70
2023/05/06 06:19:46;;;;;;;10.55;5.10;;;;;;;;;;5052958;28;20091;-70
2023/05/06 06:22:13;;;;;;;9.10;5.13;;;;;;;;;;5058427;28;20060;-67
2023/05/06 06:24:40;;;;;;;12.07;5.75;;;;;;;;;;5029751;28;20048;-67
2023/05/06 06:27:07;;;;;;;10.10;5.33;;;;;;;;;;5053821;28;20063;-69
2023/05/06 06:29:33;;;;;;;9.90;5.20;;;;;;;;;;5057255;28;20056;-69
2023/05/06 06:32:00;;;;;;;11.00;5.03;;;;;;;;;;5059409;28;20079;-70
2023/05/06 06:34:28;;;;;;;10.38;5.32;;;;;;;;;;5059136;28;20129;-70
2023/05/06 06:36:54;;;;;;;10.60;5.70;;;;;;;;;;5059226;28;20052;-68
2023/05/06 06:39:21;;;;;;;11.38;5.75;;;;;;;;;;5049777;28;20075;-71
2023/05/06 06:41:49;;;;;;;10.05;5.28;;;;;;;;;;5052973;28;20052;-68
2023/05/06 06:44:15;;;;;;;10.77;5.30;;;;;;;;;;5058806;28;20410;-69
2023/05/06 06:46:41;;;;;;;11.60;5.97;;;;;;;;;;5048712;28;20079;-68
2023/05/06 06:49:08;;;;;;;12.23;5.22;;;;;;;;;;5050536;28;20071;-69
2023/05/06 06:51:34;;;;;;;9.57;5.25;;;;;;;;;;5056699;28;20056;-67
2023/05/06 06:54:01;;;;;;;10.85;5.25;;;;;;;;;;5061293;28;20059;-70
2023/05/06 06:56:27;;;;;;;10.25;5.10;;;;;;;;;;5045615;28;20080;-69
2023/05/06 06:58:55;;;;;;;11.18;5.53;;;;;;;;;;5064700;28;20052;-67
2023/05/06 07:01:22;;;;;;;12.48;5.45;;;;;;;;;;5049691;28;20147;-69
2023/05/06 07:03:48;;;;;;;11.65;6.00;;;;;;;;;;5065650;28;20068;-67
2023/05/06 07:06:15;;;;;;;11.98;6.10;;;;;;;;;;5054008;28;20063;-67
2023/05/06 07:08:41;;;;;;;12.07;6.05;;;;;;;;;;5082846;28;20052;-68
2023/05/06 07:11:07;;;;;;;10.25;6.00;;;;;;;;;;5054349;28;20095;-69
2023/05/06 07:13:34;;;;;;;11.80;6.13;;;;;;;;;;5064665;28;20147;-69
2023/05/06 07:16:02;;;;;;;12.35;6.00;;;;;;;;;;5060647;28;20155;-67
2023/05/06 07:18:28;;;;;;;10.98;5.85;;;;;;;;;;5058195;28;20076;-70
2023/05/06 07:20:55;;;;;;;11.90;6.13;;;;;;;;;;5061684;28;20060;-67
2023/05/06 07:23:21;;;;;;;14.10;6.47;;;;;;;;;;5051209;28;20348;-69
2023/05/06 07:25:48;;;;;;;10.00;5.15;;;;;;;;;;5029188;28;20676;-68
2023/05/06 07:28:14;;;;;;;13.10;6.40;;;;;;;;;;5058163;28;20149;-67
2023/05/06 07:30:41;;;;;;;10.23;5.53;;;;;;;;;;5067435;28;20058;-69
2023/05/06 07:33:09;;;;;;;10.63;5.75;;;;;;;;;;5054225;28;20075;-68
2023/05/06 07:35:36;;;;;;;10.60;5.78;;;;;;;;;;5050363;28;20130;-67
2023/05/06 07:38:03;;;;;;;11.15;5.63;;;;;;;;;;5062053;28;20098;-68
2023/05/06 07:40:29;;;;;;;10.65;5.45;;;;;;;;;;5029378;28;20062;-70
2023/05/06 07:42:56;;;;;;;12.35;5.80;;;;;;;;;;5059285;28;20204;-67
2023/05/06 07:45:24;;;;;;;13.35;6.22;;;;;;;;;;5061727;28;20166;-69
2023/05/06 07:47:50;;;;;;;9.52;5.32;;;;;;;;;;5049425;28;20063;-65
2023/05/06 07:50:18;;;;;;;10.75;5.57;;;;;;;;;;5050328;28;20063;-66
2023/05/06 07:52:45;;;;;;;9.38;5.15;;;;;;;;;;5060264;28;20084;-65
2023/05/06 07:55:13;;;;;;;13.10;6.28;;;;;;;;;;5059636;28;20124;-68
2023/05/06 07:57:40;;;;;;;10.25;5.28;;;;;;;;;;5072597;28;20067;-67
2023/05/06 08:00:08;;;;;;;10.63;5.57;;;;;;;;;;5058845;28;20143;-66
2023/05/06 08:02:35;;;;;;;10.50;5.25;;;;;;;;;;5057862;28;20086;-68
2023/05/06 08:05:01;;;;;;;10.90;5.78;;;;;;;;;;5053774;28;20064;-67
2023/05/06 08:07:29;;;;;;;10.85;5.53;;;;;;;;;;5058557;28;20144;-66
2023/05/06 08:09:58;;;;;;;10.10;5.53;;;;;;;;;;5030775;28;20314;-68
2023/05/06 08:12:25;;;;;;;8.90;5.32;;;;;;;;;;5048714;28;20057;-70
2023/05/06 08:14:53;;;;;;;11.05;5.20;;;;;;;;;;5059280;28;20056;-68
2023/05/06 08:17:20;;;;;;;9.60;5.53;;;;;;;;;;5057635;28;20065;-67
2023/05/06 08:19:46;;;;;;;10.38;5.40;;;;;;;;;;4993085;28;20053;-65
2023/05/06 08:22:13;;;;;;;11.52;5.85;;;;;;;;;;5027163;28;20052;-69
2023/05/06 08:24:41;;;;;;;9.57;5.15;;;;;;;;;;5053469;28;20052;-70
2023/05/06 08:27:08;;;;;;;9.55;5.30;;;;;;;;;;5063364;28;20094;-68
2023/05/06 08:29:34;;;;;;;12.00;5.43;;;;;;;;;;5022868;28;20060;-69
2023/05/06 08:32:01;;;;;;;9.80;5.38;;;;;;;;;;5051779;28;21650;-65
2023/05/06 08:34:28;;;;;;;10.85;5.28;;;;;;;;;;5054888;28;20569;-67
2023/05/06 08:36:55;;;;;;;9.57;5.35;;;;;;;;;;5057085;28;20070;-65
2023/05/06 08:39:22;;;;;;;9.25;5.07;;;;;;;;;;5052708;28;20247;-66
2023/05/06 08:41:52;;;;;;;10.38;5.43;;;;;;;;;;5047647;28;20105;-67
2023/05/06 08:44:19;;;;;;;11.50;5.60;;;;;;;;;;5057076;28;20056;-65
2023/05/06 08:46:46;;;;;;;9.82;5.70;;;;;;;;;;5056773;28;20060;-66
2023/05/06 08:49:14;;;;;;;9.75;5.20;;;;;;;;;;5044342;28;20140;-65
2023/05/06 08:51:45;;;;;;;9.82;5.40;;;;;;;;;;5023514;28;20057;-66
2023/05/06 08:54:12;;;;;;;10.88;5.10;;;;;;;;;;5052409;28;20059;-67
2023/05/06 08:56:40;;;;;;;9.70;5.78;;;;;;;;;;5038916;28;20068;-69
2023/05/06 08:59:08;;;;;;;9.00;5.23;;;;;;;;;;5034401;28;20084;-66
2023/05/06 09:01:38;;;;;;;;;;;;;;;;;;5050840;28;20060;-68
2023/05/06 09:04:05;;;;;;;10.23;5.90;;;;;;;;;;5053182;28;21393;-69
2023/05/06 09:06:31;;;;;;;12.07;5.53;;;;;;;;;;5055156;28;20059;-70
2023/05/06 09:08:58;;;;;;;10.60;5.70;;;;;;;;;;5057979;28;20060;-67
2023/05/06 09:11:26;;;;;;;14.93;5.75;;;;;;;;;;5051675;28;20129;-67
2023/05/06 09:14:10;;;;;;;12.55;6.30;;;;;;;;;;5050569;28;20060;-67
2023/05/06 09:16:39;;;;;;;12.37;6.03;;;;;;;;;;5054698;28;20491;-69
2023/05/06 09:19:05;;;;;;;12.23;6.85;;;;;;;;;;5056412;28;20306;-65
2023/05/06 09:21:33;;;;;;;14.82;7.13;;;;;;;;;;5028218;28;20056;-67
2023/05/06 09:24:00;;;;;;;14.00;6.47;;;;;;;;;;5057365;28;20958;-65
2023/05/06 09:26:28;;;;;;;18.85;7.53;;;;;;;;;;5054680;28;20294;-66
2023/05/06 09:28:55;;;;;;;15.05;7.00;;;;;;;;;;5059959;28;20135;-68
2023/05/06 09:31:24;;;;;;;12.65;7.13;;;;;;;;;;5037755;28;20076;-68
2023/05/06 09:33:50;;;;;;;12.75;7.32;;;;;;;;;;5066230;28;20056;-69
2023/05/06 09:36:17;;;;;;;13.57;7.13;;;;;;;;;;5072169;28;20052;-68
2023/05/06 09:38:45;;;;;;;15.13;7.40;;;;;;;;;;5053981;28;20063;-68
2023/05/06 09:41:12;;;;;;;;;;;;;;;;;;5024551;28;20053;-71
2023/05/06 09:43:43;;;;;;;15.43;6.63;;;;;;;;;;5048810;28;19931;-68
2023/05/06 09:46:12;;;;;;;15.00;7.18;;;;;;;;;;5057543;28;20056;-67
2023/05/06 09:48:43;;;;;;;15.82;6.70;;;;;;;;;;5051867;28;20060;-69
2023/05/06 09:51:10;;;;;;;14.40;7.00;;;;;;;;;;5051252;28;20052;-70
2023/05/06 09:53:37;;;;;;;14.80;7.22;;;;;;;;;;5049980;28;20064;-67
2023/05/06 09:56:05;;;;;;;16.98;6.57;;;;;;;;;;5052301;28;20057;-69
2023/05/06 09:58:31;;;;;;;14.23;6.53;;;;;;;;;;5056863;28;20041;-71
2023/05/06 10:01:01;;;;;;;12.93;7.03;;;;;;;;;;5059726;28;20139;-69
2023/05/06 10:03:27;;;;;;;15.43;7.25;;;;;;;;;;5055071;28;20048;-69
2023/05/06 10:05:59;;;;;;;14.88;6.60;;;;;;;;;;5049883;28;20045;-68
2023/05/06 10:08:27;;;;;;;14.82;6.80;;;;;;;;;;5054811;28;20056;-71
2023/05/06 10:10:54;;;;;;;16.10;6.85;;;;;;;;;;5058206;28;20092;-68
2023/05/06 10:13:21;;;;;;;16.08;7.38;;;;;;;;;;5054192;28;20149;-68
2023/05/06 10:15:48;;;;;;;14.57;7.45;;;;;;;;;;5047738;28;20056;-66
2023/05/06 10:18:15;;;;;;;16.25;7.90;;;;;;;;;;5053357;28;20487;-67
2023/05/06 10:20:43;;;;;;;15.35;7.55;;;;;;;;;;5021567;28;20053;-68
2023/05/06 10:23:22;;;;;;;14.32;7.30;;;;;;;;;;5050605;28;20114;-66
2023/05/06 10:25:50;;;;;;;17.80;7.60;;;;;;;;;;5045680;28;20087;-67
2023/05/06 10:28:18;;;;;;;17.80;7.43;;;;;;;;;;5062757;28;20127;-68
2023/05/06 10:30:47;;;;;;;18.77;7.82;;;;;;;;;;5044862;28;20143;-67
2023/05/06 10:33:14;;;;;;;16.52;7.85;;;;;;;;;;5059859;28;20508;-72
2023/05/06 10:35:44;;;;;;;14.85;7.03;;;;;;;;;;5056549;28;20060;-69
2023/05/06 10:38:17;;;;;;;17.45;7.25;;;;;;;;;;5054033;28;20137;-68
2023/05/06 10:40:44;;;;;;;16.13;7.47;;;;;;;;;;5052177;28;20054;-67
2023/05/06 10:43:22;;;;;;;12.70;7.07;;;;;;;;;;5059615;28;20060;-68
2023/05/06 10:46:01;;;;;;;17.75;7.65;;;;;;;;;;5048674;28;20071;-67
2023/05/06 10:48:28;;;;;;;16.45;8.25;;;;;;;;;;5061408;28;20056;-67
2023/05/06 10:51:09;;;;;;;12.70;7.00;;;;;;;;;;5014136;28;20217;-68
2023/05/06 10:53:56;;;;;;;19.45;7.28;;;;;;;;;;5058912;28;20257;-68
2023/05/06 10:56:22;;;;;;;14.85;7.30;;;;;;;;;;5056181;28;20048;-65
2023/05/06 10:58:49;;;;;;;14.75;7.07;;;;;;;;;;5061150;28;20084;-68
2023/05/06 11:01:16;;;;;;;14.25;7.20;;;;;;;;;;5035213;28;20196;-69
2023/05/06 11:03:44;;;;;;;15.15;7.25;;;;;;;;;;5055820;28;20061;-69
2023/05/06 11:06:11;;;;;;;15.45;7.50;;;;;;;;;;5054882;28;20133;-69
2023/05/06 11:08:37;;;;;;;18.92;6.93;;;;;;;;;;5060210;28;20051;-69
2023/05/06 11:11:20;;;;;;;17.88;7.38;;;;;;;;;;5049137;28;20067;-66
2023/05/06 11:13:54;;;;;;;13.23;5.80;;;;;;;;;;5054901;28;20064;-69
2023/05/06 11:16:38;;;;;;;12.75;6.93;;;;;;;;;;5048246;28;20052;-67
2023/05/06 11:19:05;;;;;;;11.95;5.97;;;;;;;;;;5039521;28;20057;-69
2023/05/06 11:21:40;;;;;;;11.90;6.45;;;;;;;;;;5033265;28;20063;-68
2023/05/06 11:24:07;;;;;;;11.68;5.82;;;;;;;;;;5053139;28;21222;-66
2023/05/06 11:26:34;;;;;;;13.13;5.22;;;;;;;;;;5055194;28;20048;-66
2023/05/06 11:29:04;;;;;;;12.65;5.93;;;;;;;;;;5059259;28;20115;-70
2023/05/06 11:31:37;;;;;;;11.23;5.90;;;;;;;;;;5043009;28;20059;-68
2023/05/06 11:34:07;;;;;;;12.10;5.50;;;;;;;;;;5055061;28;20112;-69
2023/05/06 11:36:34;;;;;;;11.43;5.30;;;;;;;;;;5054181;28;20219;-67
2023/05/06 11:39:04;;;;;;;9.15;4.88;;;;;;;;;;5073666;28;20060;-66
2023/05/06 11:41:31;;;;;;;19.25;5.97;;;;;;;;;;5039622;28;20060;-66
2023/05/06 11:43:58;;;;;;;21.80;6.53;;;;;;;;;;5061129;28;20056;-67
2023/05/06 11:46:29;;;;;;;16.27;6.20;;;;;;;;;;5039190;28;20059;-71
2023/05/06 11:48:55;;;;;;;16.60;7.13;;;;;;;;;;5056819;28;20049;-68
2023/05/06 11:51:25;;;;;;;12.32;6.22;;;;;;;;;;5004658;28;20052;-68
2023/05/06 11:53:52;;;;;;;23.75;7.00;;;;;;;;;;5047416;28;20706;-68
2023/05/06 11:56:18;;;;;;;16.48;6.38;;;;;;;;;;5059730;28;20080;-71
2023/05/06 11:58:46;;;;;;;17.73;6.72;;;;;;;;;;5054336;28;20052;-68
2023/05/06 12:01:12;;;;;;;13.30;5.73;;;;;;;;;;5065002;28;20071;-68
2023/05/06 12:03:43;;;;;;;12.88;6.32;;;;;;;;;;5036045;28;20054;-66
2023/05/06 12:06:11;;;;;;;17.15;5.60;;;;;;;;;;5063492;28;20048;-72
2023/05/06 12:08:39;;;;;;;11.70;5.50;;;;;;;;;;5056295;28;20056;-68
2023/05/06 12:11:07;;;;;;;13.25;5.65;;;;;;;;;;5057452;28;20056;-69
2023/05/06 12:13:35;;;;;;;10.00;5.45;;;;;;;;;;5038951;28;20056;-65
2023/05/06 12:16:04;;;;;;;11.90;5.18;;;;;;;;;;5054377;28;20167;-67
2023/05/06 12:18:31;;;;;;;10.00;5.25;;;;;;;;;;5054710;28;20159;-69
2023/05/06 12:21:01;;;;;;;10.88;4.75;;;;;;;;;;5057687;28;20059;-64
2023/05/06 12:23:27;;;;;;;10.90;4.95;;;;;;;;;;5043543;28;20273;-70
2023/05/06 12:26:01;;;;;;;8.57;4.20;;;;;;;;;;5057075;28;20064;-65
2023/05/06 12:28:28;;;;;;;10.95;4.30;;;;;;;;;;5069727;28;20052;-66
2023/05/06 12:30:54;;;;;;;9.13;3.88;;;;;;;;;;5064789;28;20503;-67
2023/05/06 12:33:21;;;;;;;8.63;3.90;;;;;;;;;;5058622;28;20087;-65
2023/05/06 12:35:47;;;;;;;13.68;3.55;;;;;;;;;;5053503;28;20083;-69
2023/05/06 12:38:16;;;;;;;8.68;3.58;;;;;;;;;;5061417;28;20080;-65
2023/05/06 12:40:42;;;;;;;;;;;;;;;;;;5059325;28;20145;-70
2023/05/06 12:43:09;;;;;;;6.13;2.97;;;;;;;;;;5037149;28;19999;-67
2023/05/06 12:45:38;;;;;;;17.15;3.90;;;;;;;;;;5043047;28;20048;-73
2023/05/06 12:48:05;;;;;;;6.82;3.05;;;;;;;;;;5058870;28;20056;-71
2023/05/06 12:50:35;;;;;;;7.18;3.10;;;;;;;;;;5066405;28;20128;-72
2023/05/06 12:53:02;;;;;;;12.00;3.03;;;;;;;;;;5049412;28;20080;-71
2023/05/06 12:55:33;;;;;;;14.50;3.13;;;;;;;;;;5060078;28;20060;-74
2023/05/06 12:58:15;;;;;;;9.45;2.80;;;;;;;;;;5061052;28;20096;-71
2023/05/06 13:00:41;;;;;;;6.35;2.78;;;;;;;;;;5057168;28;20175;-78
2023/05/06 13:03:07;;;;;;;10.15;2.72;;;;;;;;;;5027781;28;20114;-71
2023/05/06 13:05:35;;;;;;;8.77;2.80;;;;;;;;;;5034497;28;20064;-70
2023/05/06 13:08:01;;;;;;;8.47;3.17;;;;;;;;;;5058499;28;20060;-76
2023/05/06 13:10:28;;;;;;;6.20;2.78;;;;;;;;;;5059390;28;20113;-76
2023/05/06 13:12:56;;;;;;;9.00;2.80;;;;;;;;;;5063178;28;20057;-73
2023/05/06 13:15:23;;;;;;;11.93;2.80;;;;;;;;;;5045886;28;20056;-73
2023/05/06 13:17:49;;;;;;;9.07;2.83;;;;;;;;;;5034835;28;20280;-73
2023/05/06 13:20:17;;;;;;;6.68;2.33;;;;;;;;;;5055787;28;20159;-69
2023/05/06 13:22:46;;;;;;;10.63;2.25;;;;;;;;;;5059702;28;20227;-70
2023/05/06 13:25:12;;;;;;;;;;;;;;;;;;5061570;28;20090;-68
2023/05/06 13:27:47;;;;;;;4.32;2.03;;;;;;;;;;5053849;28;19924;-70
2023/05/06 13:30:15;;;;;;;5.65;2.20;;;;;;;;;;5066299;28;20160;-69
2023/05/06 13:32:42;;;;;;;8.10;2.30;;;;;;;;;;5057443;28;20079;-69
2023/05/06 13:35:09;;;;;;;7.85;2.42;;;;;;;;;;5022068;28;20107;-70
2023/05/06 13:37:35;;;;;;;6.18;2.25;;;;;;;;;;5053711;28;20135;-74
2023/05/06 13:40:07;;;;;;;5.03;2.08;;;;;;;;;;5058302;28;20135;-72
2023/05/06 13:42:33;;;;;;;5.88;1.98;;;;;;;;;;5053921;28;20333;-71
2023/05/06 13:45:00;;;;;;;5.18;1.90;;;;;;;;;;5035382;28;20084;-72
2023/05/06 13:47:28;;;;;;;6.93;2.22;;;;;;;;;;5048391;28;20048;-74
2023/05/06 13:49:56;;;;;;;3.88;1.95;;;;;;;;;;5051956;28;20056;-70
2023/05/06 13:52:22;;;;;;;6.50;2.13;;;;;;;;;;5052970;28;20056;-72
2023/05/06 13:54:49;;;;;;;4.63;1.77;;;;;;;;;;5042272;28;20147;-72
2023/05/06 13:57:16;;;;;;;4.50;1.90;;;;;;;;;;5054851;28;20048;-68
2023/05/06 13:59:42;;;;;;;4.10;1.90;;;;;;;;;;5048158;28;20044;-72
2023/05/06 14:02:10;;;;;;;3.97;1.98;;;;;;;;;;5053261;28;20075;-74
2023/05/06 14:04:36;;;;;;;5.40;1.80;;;;;;;;;;5034907;28;20161;-70
2023/05/06 14:07:04;;;;;;;2.22;1.38;;;;;;;;;;5056211;28;20224;-65
2023/05/06 14:09:33;;;;;;;4.53;1.70;;;;;;;;;;5056515;28;20060;-70
2023/05/06 14:12:00;;;;;;;3.78;1.67;;;;;;;;;;5053130;28;20171;-70
2023/05/06 14:14:26;;;;;;;3.10;1.70;;;;;;;;;;5037879;28;20139;-68
2023/05/06 14:16:54;;;;;;;4.10;1.80;;;;;;;;;;5058865;28;20052;-74
2023/05/06 14:19:20;;;;;;;3.97;1.73;;;;;;;;;;5051272;28;20083;-73
2023/05/06 14:21:47;;;;;;;2.72;1.50;;;;;;;;;;5047872;28;20066;-73
2023/05/06 14:24:15;;;;;;;5.18;1.67;;;;;;;;;;5019691;28;20048;-70
2023/05/06 14:26:41;;;;;;;5.00;1.73;;;;;;;;;;5055328;28;20083;-77
2023/05/06 14:29:07;;;;;;;3.28;1.45;;;;;;;;;;5045584;28;20064;-75
2023/05/06 14:31:34;;;;;;;4.18;1.60;;;;;;;;;;5046376;28;20076;-77
2023/05/06 14:34:01;;;;;;;2.67;1.55;;;;;;;;;;5045497;28;20068;-69
2023/05/06 14:36:28;;;;;;;2.75;1.50;;;;;;;;;;5035514;28;20052;-70
2023/05/06 14:38:55;;;;;;;6.88;1.50;;;;;;;;;;5059013;28;20052;-72
2023/05/06 14:41:22;;;;;;;10.63;1.77;;;;;;;;;;5055602;28;20060;-76
2023/05/06 14:43:49;;;;;;;10.77;1.70;;;;;;;;;;5042115;28;20145;-68
2023/05/06 14:46:18;;;;;;;3.47;1.30;;;;;;;;;;5050950;28;20068;-79
2023/05/06 14:48:44;;;;;;;3.17;1.52;;;;;;;;;;5054682;28;20056;-75
2023/05/06 14:51:11;;;;;;;4.22;1.63;;;;;;;;;;5056893;28;20147;-70
2023/05/06 14:53:37;;;;;;;4.07;1.40;;;;;;;;;;5057321;28;20061;-72
2023/05/06 14:56:04;;;;;;;2.75;1.20;;;;;;;;;;5045026;28;20320;-68
2023/05/06 14:58:32;;;;;;;3.40;1.50;;;;;;;;;;5055895;28;20063;-78
2023/05/06 15:00:58;;;;;;;3.60;1.50;;;;;;;;;;5055170;28;20383;-71
2023/05/06 15:03:24;;;;;;;3.60;1.50;;;;;;;;;;5056761;28;20143;-70
2023/05/06 15:05:57;;;;;;;3.72;1.60;;;;;;;;;;5013982;28;20144;-70
2023/05/06 15:08:31;;;;;;;6.05;1.70;;;;;;;;;;5057474;28;20061;-70
2023/05/06 15:10:59;;;;;;;3.65;1.60;;;;;;;;;;5057029;28;20068;-71
2023/05/06 15:13:27;;;;;;;;;;;;;;;;;;5057511;28;20080;-67
2023/05/06 15:15:55;;;;;;;5.53;1.60;;;;;;;;;;5050723;28;19925;-69
2023/05/06 15:18:22;;;;;;;3.92;1.30;;;;;;;;;;5059684;28;20151;-65
2023/05/06 15:20:48;;;;;;;3.33;1.38;;;;;;;;;;5073465;28;20064;-76
2023/05/06 15:23:15;;;;;;;6.05;1.65;;;;;;;;;;5064793;28;20114;-71
2023/05/06 15:25:41;;;;;;;3.45;1.60;;;;;;;;;;5052695;28;20159;-76
2023/05/06 15:28:09;;;;;;;4.55;1.80;;;;;;;;;;5054740;28;20145;-69
2023/05/06 15:30:36;;;;;;;3.60;1.23;;;;;;;;;;5056648;28;20061;-69
2023/05/06 15:33:05;;;;;;;4.47;1.52;;;;;;;;;;5060665;28;20091;-69
2023/05/06 15:35:31;;;;;;;1.88;1.25;;;;;;;;;;5046844;28;20056;-68
2023/05/06 15:37:58;;;;;;;5.93;1.30;;;;;;;;;;5049839;28;20109;-71
2023/05/06 15:40:25;;;;;;;3.50;1.40;;;;;;;;;;5060076;28;20056;-69
2023/05/06 15:42:51;;;;;;;4.10;1.33;;;;;;;;;;5054228;28;20167;-71
2023/05/06 15:45:18;;;;;;;5.15;1.30;;;;;;;;;;5044725;28;20060;-73
2023/05/06 15:47:47;;;;;;;5.78;1.40;;;;;;;;;;5050525;28;20049;-67
2023/05/06 15:50:13;;;;;;;;;;;;;;;;;;5037966;28;20152;-72
2023/05/06 15:52:42;;;;;;;6.55;1.30;;;;;;;;;;5049978;28;19924;-71
2023/05/06 15:55:11;;;;;;;3.70;1.38;;;;;;;;;;5073329;28;20067;-71
2023/05/06 15:57:37;;;;;;;2.10;1.00;;;;;;;;;;5022911;28;20159;-76
2023/05/06 16:00:04;;;;;;;3.65;1.13;;;;;;;;;;5037239;28;20080;-72
2023/05/06 16:02:34;;;;;;;2.77;1.20;;;;;;;;;;5043717;28;20079;-69
2023/05/06 16:05:01;;;;;;;2.33;1.10;;;;;;;;;;5058943;28;20060;-74
2023/05/06 16:07:28;;;;;;;1.92;0.90;;;;;;;;;;5025252;28;20056;-68
2023/05/06 16:09:56;;;;;;;6.15;1.40;;;;;;;;;;5049710;28;20084;-72
2023/05/06 16:12:23;;;;;;;4.30;1.33;;;;;;;;;;5037852;28;20088;-70
2023/05/06 16:14:49;;;;;;;3.95;1.10;;;;;;;;;;5062530;28;20048;-69
2023/05/06 16:17:16;;;;;;;3.25;1.13;;;;;;;;;;5056422;28;20228;-66
2023/05/06 16:19:42;;;;;;;5.47;1.42;;;;;;;;;;5055317;28;20061;-72
2023/05/06 16:22:09;;;;;;;2.33;1.30;;;;;;;;;;5051196;28;20087;-76
2023/05/06 16:24:35;;;;;;;2.40;1.10;;;;;;;;;;5053923;28;20171;-75
2023/05/06 16:27:04;;;;;;;3.17;1.17;;;;;;;;;;5054811;28;20056;-71
2023/05/06 16:29:31;;;;;;;3.13;1.30;;;;;;;;;;5056009;28;20147;-67
2023/05/06 16:31:57;;;;;;;3.85;1.20;;;;;;;;;;5051078;28;20107;-75
2023/05/06 16:34:26;;;;;;;3.05;1.15;;;;;;;;;;5056885;28;20064;-73
2023/05/06 16:36:53;;;;;;;2.28;1.15;;;;;;;;;;5059866;28;20128;-72
2023/05/06 16:39:19;;;;;;;2.60;1.30;;;;;;;;;;5060727;28;20079;-69
2023/05/06 16:41:46;;;;;;;2.78;1.27;;;;;;;;;;5054402;28;20060;-66
2023/05/06 16:44:14;;;;;;;6.30;1.50;;;;;;;;;;5053526;28;20149;-73
2023/05/06 16:46:40;;;;;;;3.20;1.20;;;;;;;;;;5050911;28;20151;-70
2023/05/06 16:49:07;;;;;;;2.35;1.23;;;;;;;;;;5052387;28;20064;-70